sensor_id;sensor_type;location;lat;lon;timestamp;P1;durP1;ratioP1;P2;durP2;ratioP2
11139;SDS011;5624;49.388;11.350;2023-02-26T00:00:09;3.90;;;2.10;;
11139;SDS011;5624;49.388;11.350;2023-02-26T00:02:37;3.17;;;1.90;;
11139;SDS011;5624;49.388;11.350;2023-02-26T00:05:03;2.97;;;1.73;;
11139;SDS011;5624;49.388;11.350;2023-02-26T00:07:30;2.87;;;1.60;;
11139;SDS011;5624;49.388;11.350;2023-02-26T00:09:55;2.90;;;1.80;;
11139;SDS011;5624;49.388;11.350;2023-02-26T00:12:21;3.00;;;1.60;;
11139;SDS011;5624;49.388;11.350;2023-02-26T00:14:47;4.83;;;1.97;;
11139;SDS011;5624;49.388;11.350;2023-02-26T00:19:44;4.70;;;2.30;;
11139;SDS011;5624;49.388;11.350;2023-02-26T00:22:10;4.83;;;2.10;;
11139;SDS011;5624;49.388;11.350;2023-02-26T00:24:35;5.47;;;2.30;;
11139;SDS011;5624;49.388;11.350;2023-02-26T00:27:01;2.63;;;1.93;;
11139;SDS011;5624;49.388;11.350;2023-02-26T00:29:26;3.10;;;1.80;;
11139;SDS011;5624;49.388;11.350;2023-02-26T00:31:52;4.77;;;2.57;;
11139;SDS011;5624;49.388;11.350;2023-02-26T00:34:18;4.30;;;2.20;;
11139;SDS011;5624;49.388;11.350;2023-02-26T00:36:45;4.07;;;2.20;;
11139;SDS011;5624;49.388;11.350;2023-02-26T00:42:22;3.93;;;2.30;;
11139;SDS011;5624;49.388;11.350;2023-02-26T00:44:47;3.40;;;2.50;;
11139;SDS011;5624;49.388;11.350;2023-02-26T00:47:20;3.40;;;2.07;;
11139;SDS011;5624;49.388;11.350;2023-02-26T00:52:43;2.83;;;1.87;;
11139;SDS011;5624;49.388;11.350;2023-02-26T00:55:17;3.57;;;2.20;;
11139;SDS011;5624;49.388;11.350;2023-02-26T00:57:43;5.30;;;2.10;;
11139;SDS011;5624;49.388;11.350;2023-02-26T01:00:09;5.53;;;2.80;;
11139;SDS011;5624;49.388;11.350;2023-02-26T01:02:36;3.63;;;2.20;;
11139;SDS011;5624;49.388;11.350;2023-02-26T01:05:03;4.23;;;2.00;;
11139;SDS011;5624;49.388;11.350;2023-02-26T01:07:31;3.73;;;2.43;;
11139;SDS011;5624;49.388;11.350;2023-02-26T01:10:04;3.60;;;2.07;;
11139;SDS011;5624;49.388;11.350;2023-02-26T01:12:30;4.67;;;2.10;;
11139;SDS011;5624;49.388;11.350;2023-02-26T01:14:56;5.43;;;2.00;;
11139;SDS011;5624;49.388;11.350;2023-02-26T01:17:33;3.77;;;2.50;;
11139;SDS011;5624;49.388;11.350;2023-02-26T01:20:19;5.00;;;2.20;;
11139;SDS011;5624;49.388;11.350;2023-02-26T01:22:53;5.13;;;2.10;;
11139;SDS011;5624;49.388;11.350;2023-02-26T01:25:28;3.57;;;2.20;;
11139;SDS011;5624;49.388;11.350;2023-02-26T01:28:00;4.60;;;2.20;;
11139;SDS011;5624;49.388;11.350;2023-02-26T01:30:26;2.70;;;2.03;;
11139;SDS011;5624;49.388;11.350;2023-02-26T01:49:30;4.13;;;2.10;;
11139;SDS011;5624;49.388;11.350;2023-02-26T01:51:57;3.60;;;2.17;;
11139;SDS011;5624;49.388;11.350;2023-02-26T01:54:27;3.70;;;2.60;;
11139;SDS011;5624;49.388;11.350;2023-02-26T01:57:13;5.07;;;2.40;;
11139;SDS011;5624;49.388;11.350;2023-02-26T01:59:42;4.60;;;2.43;;
11139;SDS011;5624;49.388;11.350;2023-02-26T02:02:11;4.77;;;2.60;;
11139;SDS011;5624;49.388;11.350;2023-02-26T02:04:39;4.90;;;2.50;;
11139;SDS011;5624;49.388;11.350;2023-02-26T02:07:06;6.07;;;2.20;;
11139;SDS011;5624;49.388;11.350;2023-02-26T02:09:32;7.13;;;2.90;;
11139;SDS011;5624;49.388;11.350;2023-02-26T02:17:48;5.10;;;2.37;;
11139;SDS011;5624;49.388;11.350;2023-02-26T02:26:17;3.37;;;2.10;;
11139;SDS011;5624;49.388;11.350;2023-02-26T02:29:20;4.17;;;2.57;;
11139;SDS011;5624;49.388;11.350;2023-02-26T02:31:54;2.40;;;2.20;;
11139;SDS011;5624;49.388;11.350;2023-02-26T02:34:29;5.57;;;2.40;;
11139;SDS011;5624;49.388;11.350;2023-02-26T02:37:18;4.77;;;2.40;;
11139;SDS011;5624;49.388;11.350;2023-02-26T02:39:50;7.60;;;2.40;;
11139;SDS011;5624;49.388;11.350;2023-02-26T02:42:30;3.70;;;2.37;;
11139;SDS011;5624;49.388;11.350;2023-02-26T02:45:11;4.07;;;2.77;;
11139;SDS011;5624;49.388;11.350;2023-02-26T02:47:46;3.20;;;2.20;;
11139;SDS011;5624;49.388;11.350;2023-02-26T02:50:59;3.97;;;2.27;;
11139;SDS011;5624;49.388;11.350;2023-02-26T02:53:14;4.63;;;2.27;;
11139;SDS011;5624;49.388;11.350;2023-02-26T02:58:28;3.73;;;2.33;;
11139;SDS011;5624;49.388;11.350;2023-02-26T03:01:00;3.20;;;2.40;;
11139;SDS011;5624;49.388;11.350;2023-02-26T03:06:18;5.83;;;2.40;;
11139;SDS011;5624;49.388;11.350;2023-02-26T03:08:44;4.97;;;2.27;;
11139;SDS011;5624;49.388;11.350;2023-02-26T03:11:12;4.30;;;2.57;;
11139;SDS011;5624;49.388;11.350;2023-02-26T03:13:38;4.20;;;2.50;;
11139;SDS011;5624;49.388;11.350;2023-02-26T03:21:47;2.73;;;2.30;;
11139;SDS011;5624;49.388;11.350;2023-02-26T03:32:27;4.70;;;2.23;;
11139;SDS011;5624;49.388;11.350;2023-02-26T03:40:17;4.63;;;2.30;;
11139;SDS011;5624;49.388;11.350;2023-02-26T03:42:49;5.00;;;2.60;;
11139;SDS011;5624;49.388;11.350;2023-02-26T03:45:28;2.63;;;1.83;;
11139;SDS011;5624;49.388;11.350;2023-02-26T03:47:57;7.70;;;2.63;;
11139;SDS011;5624;49.388;11.350;2023-02-26T03:50:31;4.63;;;2.13;;
11139;SDS011;5624;49.388;11.350;2023-02-26T03:52:58;4.10;;;2.27;;
11139;SDS011;5624;49.388;11.350;2023-02-26T03:58:24;2.50;;;2.30;;
11139;SDS011;5624;49.388;11.350;2023-02-26T04:00:52;2.83;;;1.83;;
11139;SDS011;5624;49.388;11.350;2023-02-26T04:03:43;3.13;;;2.20;;
11139;SDS011;5624;49.388;11.350;2023-02-26T04:06:22;1.97;;;1.87;;
11139;SDS011;5624;49.388;11.350;2023-02-26T04:08:49;4.00;;;2.23;;
11139;SDS011;5624;49.388;11.350;2023-02-26T04:11:16;3.10;;;2.27;;
11139;SDS011;5624;49.388;11.350;2023-02-26T04:13:44;3.33;;;2.00;;
11139;SDS011;5624;49.388;11.350;2023-02-26T04:16:09;3.70;;;2.20;;
11139;SDS011;5624;49.388;11.350;2023-02-26T04:18:35;2.37;;;2.00;;
11139;SDS011;5624;49.388;11.350;2023-02-26T04:21:01;2.47;;;2.17;;
11139;SDS011;5624;49.388;11.350;2023-02-26T04:23:27;4.63;;;2.33;;
11139;SDS011;5624;49.388;11.350;2023-02-26T04:25:53;2.67;;;2.03;;
11139;SDS011;5624;49.388;11.350;2023-02-26T04:28:18;2.63;;;2.43;;
11139;SDS011;5624;49.388;11.350;2023-02-26T04:30:44;4.83;;;2.47;;
11139;SDS011;5624;49.388;11.350;2023-02-26T04:33:10;4.00;;;2.03;;
11139;SDS011;5624;49.388;11.350;2023-02-26T04:35:37;2.40;;;2.20;;
11139;SDS011;5624;49.388;11.350;2023-02-26T04:38:03;3.40;;;2.10;;
11139;SDS011;5624;49.388;11.350;2023-02-26T04:40:29;4.60;;;2.67;;
11139;SDS011;5624;49.388;11.350;2023-02-26T04:42:55;3.80;;;2.10;;
11139;SDS011;5624;49.388;11.350;2023-02-26T04:45:21;2.37;;;2.10;;
11139;SDS011;5624;49.388;11.350;2023-02-26T04:47:47;3.00;;;2.07;;
11139;SDS011;5624;49.388;11.350;2023-02-26T04:50:12;3.90;;;1.90;;
11139;SDS011;5624;49.388;11.350;2023-02-26T04:52:38;3.13;;;2.27;;
11139;SDS011;5624;49.388;11.350;2023-02-26T04:55:04;5.07;;;2.40;;
11139;SDS011;5624;49.388;11.350;2023-02-26T04:57:31;2.97;;;2.10;;
11139;SDS011;5624;49.388;11.350;2023-02-26T04:59:57;3.87;;;2.20;;
11139;SDS011;5624;49.388;11.350;2023-02-26T05:02:22;4.50;;;2.20;;
11139;SDS011;5624;49.388;11.350;2023-02-26T05:04:48;3.03;;;2.40;;
11139;SDS011;5624;49.388;11.350;2023-02-26T05:07:13;3.13;;;2.37;;
11139;SDS011;5624;49.388;11.350;2023-02-26T05:09:39;2.73;;;2.20;;
11139;SDS011;5624;49.388;11.350;2023-02-26T05:12:05;3.97;;;2.27;;
11139;SDS011;5624;49.388;11.350;2023-02-26T05:14:30;4.60;;;2.27;;
11139;SDS011;5624;49.388;11.350;2023-02-26T05:16:56;4.53;;;2.20;;
11139;SDS011;5624;49.388;11.350;2023-02-26T05:19:21;2.23;;;1.90;;
11139;SDS011;5624;49.388;11.350;2023-02-26T05:21:48;3.97;;;2.57;;
11139;SDS011;5624;49.388;11.350;2023-02-26T05:24:14;3.63;;;2.10;;
11139;SDS011;5624;49.388;11.350;2023-02-26T05:26:40;3.37;;;2.03;;
11139;SDS011;5624;49.388;11.350;2023-02-26T05:29:06;3.40;;;2.20;;
11139;SDS011;5624;49.388;11.350;2023-02-26T05:31:32;3.50;;;2.30;;
11139;SDS011;5624;49.388;11.350;2023-02-26T05:33:57;4.13;;;2.00;;
11139;SDS011;5624;49.388;11.350;2023-02-26T05:36:23;5.70;;;2.23;;
11139;SDS011;5624;49.388;11.350;2023-02-26T05:38:48;4.63;;;2.30;;
11139;SDS011;5624;49.388;11.350;2023-02-26T05:41:14;3.60;;;1.90;;
11139;SDS011;5624;49.388;11.350;2023-02-26T05:43:40;3.40;;;2.33;;
11139;SDS011;5624;49.388;11.350;2023-02-26T05:46:05;3.27;;;1.90;;
11139;SDS011;5624;49.388;11.350;2023-02-26T05:48:31;5.93;;;2.23;;
11139;SDS011;5624;49.388;11.350;2023-02-26T05:50:57;4.07;;;2.33;;
11139;SDS011;5624;49.388;11.350;2023-02-26T05:53:23;5.10;;;2.40;;
11139;SDS011;5624;49.388;11.350;2023-02-26T05:55:48;4.33;;;2.03;;
11139;SDS011;5624;49.388;11.350;2023-02-26T05:58:14;2.77;;;2.30;;
11139;SDS011;5624;49.388;11.350;2023-02-26T06:00:40;7.23;;;2.50;;
11139;SDS011;5624;49.388;11.350;2023-02-26T06:03:06;3.23;;;2.33;;
11139;SDS011;5624;49.388;11.350;2023-02-26T06:05:32;5.03;;;2.50;;
11139;SDS011;5624;49.388;11.350;2023-02-26T06:07:57;3.40;;;2.37;;
11139;SDS011;5624;49.388;11.350;2023-02-26T06:10:23;3.67;;;2.47;;
11139;SDS011;5624;49.388;11.350;2023-02-26T06:12:48;4.27;;;2.43;;
11139;SDS011;5624;49.388;11.350;2023-02-26T06:15:14;5.50;;;2.50;;
11139;SDS011;5624;49.388;11.350;2023-02-26T06:17:40;3.43;;;2.50;;
11139;SDS011;5624;49.388;11.350;2023-02-26T06:20:06;3.23;;;2.23;;
11139;SDS011;5624;49.388;11.350;2023-02-26T06:22:32;3.63;;;2.93;;
11139;SDS011;5624;49.388;11.350;2023-02-26T06:24:58;3.70;;;2.50;;
11139;SDS011;5624;49.388;11.350;2023-02-26T06:27:24;3.07;;;2.23;;
11139;SDS011;5624;49.388;11.350;2023-02-26T06:29:50;4.13;;;2.40;;
11139;SDS011;5624;49.388;11.350;2023-02-26T06:32:16;4.40;;;2.70;;
11139;SDS011;5624;49.388;11.350;2023-02-26T06:34:41;3.77;;;2.87;;
11139;SDS011;5624;49.388;11.350;2023-02-26T06:37:07;5.80;;;2.60;;
11139;SDS011;5624;49.388;11.350;2023-02-26T06:39:32;5.40;;;2.53;;
11139;SDS011;5624;49.388;11.350;2023-02-26T06:41:58;5.57;;;2.43;;
11139;SDS011;5624;49.388;11.350;2023-02-26T06:44:24;3.50;;;2.80;;
11139;SDS011;5624;49.388;11.350;2023-02-26T06:46:49;4.47;;;3.17;;
11139;SDS011;5624;49.388;11.350;2023-02-26T06:49:15;3.47;;;2.60;;
11139;SDS011;5624;49.388;11.350;2023-02-26T06:51:41;3.33;;;2.37;;
11139;SDS011;5624;49.388;11.350;2023-02-26T06:54:06;3.67;;;2.70;;
11139;SDS011;5624;49.388;11.350;2023-02-26T06:56:32;4.93;;;2.47;;
11139;SDS011;5624;49.388;11.350;2023-02-26T06:58:57;2.77;;;2.20;;
11139;SDS011;5624;49.388;11.350;2023-02-26T07:01:23;2.93;;;2.30;;
11139;SDS011;5624;49.388;11.350;2023-02-26T07:03:49;5.27;;;2.93;;
11139;SDS011;5624;49.388;11.350;2023-02-26T07:06:15;3.97;;;2.90;;
11139;SDS011;5624;49.388;11.350;2023-02-26T07:08:41;3.07;;;2.37;;
11139;SDS011;5624;49.388;11.350;2023-02-26T07:11:07;2.80;;;2.33;;
11139;SDS011;5624;49.388;11.350;2023-02-26T07:13:34;2.70;;;2.47;;
11139;SDS011;5624;49.388;11.350;2023-02-26T07:16:00;3.83;;;2.93;;
11139;SDS011;5624;49.388;11.350;2023-02-26T07:18:26;3.30;;;2.60;;
11139;SDS011;5624;49.388;11.350;2023-02-26T07:20:52;2.50;;;2.30;;
11139;SDS011;5624;49.388;11.350;2023-02-26T07:23:17;3.60;;;2.20;;
11139;SDS011;5624;49.388;11.350;2023-02-26T07:25:43;3.37;;;2.50;;
11139;SDS011;5624;49.388;11.350;2023-02-26T07:28:08;3.47;;;2.20;;
11139;SDS011;5624;49.388;11.350;2023-02-26T07:30:34;5.03;;;2.60;;
11139;SDS011;5624;49.388;11.350;2023-02-26T07:33:00;2.57;;;2.30;;
11139;SDS011;5624;49.388;11.350;2023-02-26T07:35:25;2.27;;;2.07;;
11139;SDS011;5624;49.388;11.350;2023-02-26T07:37:51;3.93;;;2.47;;
11139;SDS011;5624;49.388;11.350;2023-02-26T07:40:17;2.73;;;2.33;;
11139;SDS011;5624;49.388;11.350;2023-02-26T07:42:43;2.57;;;2.37;;
11139;SDS011;5624;49.388;11.350;2023-02-26T07:45:09;3.37;;;2.47;;
11139;SDS011;5624;49.388;11.350;2023-02-26T07:47:36;3.93;;;2.57;;
11139;SDS011;5624;49.388;11.350;2023-02-26T07:50:02;3.87;;;2.83;;
11139;SDS011;5624;49.388;11.350;2023-02-26T07:52:28;3.33;;;2.33;;
11139;SDS011;5624;49.388;11.350;2023-02-26T07:54:54;3.50;;;2.20;;
11139;SDS011;5624;49.388;11.350;2023-02-26T07:57:19;3.63;;;2.43;;
11139;SDS011;5624;49.388;11.350;2023-02-26T07:59:45;3.07;;;2.50;;
11139;SDS011;5624;49.388;11.350;2023-02-26T08:02:11;3.60;;;2.33;;
11139;SDS011;5624;49.388;11.350;2023-02-26T08:04:37;4.83;;;3.20;;
11139;SDS011;5624;49.388;11.350;2023-02-26T08:07:03;3.27;;;2.90;;
11139;SDS011;5624;49.388;11.350;2023-02-26T08:09:29;3.43;;;2.90;;
11139;SDS011;5624;49.388;11.350;2023-02-26T08:11:54;4.57;;;3.20;;
11139;SDS011;5624;49.388;11.350;2023-02-26T08:14:20;3.10;;;2.70;;
11139;SDS011;5624;49.388;11.350;2023-02-26T08:16:46;3.53;;;2.83;;
11139;SDS011;5624;49.388;11.350;2023-02-26T08:19:12;4.23;;;2.50;;
11139;SDS011;5624;49.388;11.350;2023-02-26T08:21:38;3.80;;;2.77;;
11139;SDS011;5624;49.388;11.350;2023-02-26T08:24:03;5.17;;;2.53;;
11139;SDS011;5624;49.388;11.350;2023-02-26T08:26:29;4.07;;;2.50;;
11139;SDS011;5624;49.388;11.350;2023-02-26T08:28:55;3.37;;;2.23;;
11139;SDS011;5624;49.388;11.350;2023-02-26T08:31:20;2.37;;;2.10;;
11139;SDS011;5624;49.388;11.350;2023-02-26T08:33:46;2.87;;;2.20;;
11139;SDS011;5624;49.388;11.350;2023-02-26T08:36:12;2.43;;;1.70;;
11139;SDS011;5624;49.388;11.350;2023-02-26T08:38:38;2.67;;;2.47;;
11139;SDS011;5624;49.388;11.350;2023-02-26T08:41:04;3.13;;;2.53;;
11139;SDS011;5624;49.388;11.350;2023-02-26T08:43:30;3.10;;;2.50;;
11139;SDS011;5624;49.388;11.350;2023-02-26T08:45:56;2.67;;;2.43;;
11139;SDS011;5624;49.388;11.350;2023-02-26T08:48:22;3.03;;;2.70;;
11139;SDS011;5624;49.388;11.350;2023-02-26T08:50:48;3.23;;;2.30;;
11139;SDS011;5624;49.388;11.350;2023-02-26T08:53:14;2.60;;;2.40;;
11139;SDS011;5624;49.388;11.350;2023-02-26T08:55:39;2.23;;;1.80;;
11139;SDS011;5624;49.388;11.350;2023-02-26T08:58:05;2.20;;;2.00;;
11139;SDS011;5624;49.388;11.350;2023-02-26T09:00:31;3.53;;;2.13;;
11139;SDS011;5624;49.388;11.350;2023-02-26T09:02:57;2.17;;;2.00;;
11139;SDS011;5624;49.388;11.350;2023-02-26T09:05:23;4.03;;;1.97;;
11139;SDS011;5624;49.388;11.350;2023-02-26T09:07:49;2.30;;;1.70;;
11139;SDS011;5624;49.388;11.350;2023-02-26T09:10:15;1.77;;;1.67;;
11139;SDS011;5624;49.388;11.350;2023-02-26T09:12:41;1.60;;;1.50;;
11139;SDS011;5624;49.388;11.350;2023-02-26T09:15:07;1.93;;;1.60;;
11139;SDS011;5624;49.388;11.350;2023-02-26T09:17:34;1.60;;;1.50;;
11139;SDS011;5624;49.388;11.350;2023-02-26T09:20:00;3.67;;;3.37;;
11139;SDS011;5624;49.388;11.350;2023-02-26T09:22:26;2.33;;;2.13;;
11139;SDS011;5624;49.388;11.350;2023-02-26T09:24:51;2.07;;;1.87;;
11139;SDS011;5624;49.388;11.350;2023-02-26T09:27:17;4.97;;;3.13;;
11139;SDS011;5624;49.388;11.350;2023-02-26T09:29:42;1.57;;;1.40;;
11139;SDS011;5624;49.388;11.350;2023-02-26T09:32:08;2.87;;;2.23;;
11139;SDS011;5624;49.388;11.350;2023-02-26T09:34:34;1.40;;;1.30;;
11139;SDS011;5624;49.388;11.350;2023-02-26T09:37:01;3.20;;;1.97;;
11139;SDS011;5624;49.388;11.350;2023-02-26T09:39:28;1.63;;;1.53;;
11139;SDS011;5624;49.388;11.350;2023-02-26T09:41:54;1.63;;;1.40;;
11139;SDS011;5624;49.388;11.350;2023-02-26T09:44:25;2.07;;;1.87;;
11139;SDS011;5624;49.388;11.350;2023-02-26T09:47:01;2.40;;;1.80;;
11139;SDS011;5624;49.388;11.350;2023-02-26T09:49:43;1.57;;;1.47;;
11139;SDS011;5624;49.388;11.350;2023-02-26T09:52:27;1.37;;;1.37;;
11139;SDS011;5624;49.388;11.350;2023-02-26T09:55:02;2.03;;;1.70;;
11139;SDS011;5624;49.388;11.350;2023-02-26T09:57:35;4.20;;;2.20;;
11139;SDS011;5624;49.388;11.350;2023-02-26T10:00:06;1.10;;;1.10;;
11139;SDS011;5624;49.388;11.350;2023-02-26T10:02:58;1.20;;;1.10;;
11139;SDS011;5624;49.388;11.350;2023-02-26T10:05:38;1.50;;;1.20;;
11139;SDS011;5624;49.388;11.350;2023-02-26T10:08:18;1.23;;;1.13;;
11139;SDS011;5624;49.388;11.350;2023-02-26T10:10:53;2.80;;;2.20;;
11139;SDS011;5624;49.388;11.350;2023-02-26T10:16:14;2.23;;;1.97;;
11139;SDS011;5624;49.388;11.350;2023-02-26T10:18:51;1.20;;;1.20;;
11139;SDS011;5624;49.388;11.350;2023-02-26T10:21:24;1.10;;;1.10;;
11139;SDS011;5624;49.388;11.350;2023-02-26T10:24:15;1.10;;;1.10;;
11139;SDS011;5624;49.388;11.350;2023-02-26T10:26:49;5.10;;;1.40;;
11139;SDS011;5624;49.388;11.350;2023-02-26T10:37:19;1.63;;;1.33;;
11139;SDS011;5624;49.388;11.350;2023-02-26T10:40:09;1.23;;;1.20;;
11139;SDS011;5624;49.388;11.350;2023-02-26T10:45:41;1.40;;;1.30;;
11139;SDS011;5624;49.388;11.350;2023-02-26T10:49:26;1.60;;;1.50;;
11139;SDS011;5624;49.388;11.350;2023-02-26T10:51:24;1.30;;;1.20;;
11139;SDS011;5624;49.388;11.350;2023-02-26T10:53:57;1.13;;;1.13;;
11139;SDS011;5624;49.388;11.350;2023-02-26T10:56:37;1.00;;;1.00;;
11139;SDS011;5624;49.388;11.350;2023-02-26T10:59:02;1.50;;;1.40;;
11139;SDS011;5624;49.388;11.350;2023-02-26T11:01:28;1.50;;;1.33;;
11139;SDS011;5624;49.388;11.350;2023-02-26T11:03:55;1.87;;;1.40;;
11139;SDS011;5624;49.388;11.350;2023-02-26T11:06:29;1.30;;;1.20;;
11139;SDS011;5624;49.388;11.350;2023-02-26T11:08:59;1.40;;;1.30;;
11139;SDS011;5624;49.388;11.350;2023-02-26T11:14:14;1.97;;;1.23;;
11139;SDS011;5624;49.388;11.350;2023-02-26T11:16:48;1.13;;;1.03;;
11139;SDS011;5624;49.388;11.350;2023-02-26T11:19:16;1.17;;;1.17;;
11139;SDS011;5624;49.388;11.350;2023-02-26T11:21:48;1.23;;;1.13;;
11139;SDS011;5624;49.388;11.350;2023-02-26T11:24:27;2.00;;;1.13;;
11139;SDS011;5624;49.388;11.350;2023-02-26T11:27:30;4.60;;;2.03;;
11139;SDS011;5624;49.388;11.350;2023-02-26T11:29:59;1.00;;;1.00;;
11139;SDS011;5624;49.388;11.350;2023-02-26T11:32:36;1.00;;;1.00;;
11139;SDS011;5624;49.388;11.350;2023-02-26T11:35:05;1.20;;;1.10;;
11139;SDS011;5624;49.388;11.350;2023-02-26T11:37:39;1.97;;;1.30;;
11139;SDS011;5624;49.388;11.350;2023-02-26T11:42:46;1.20;;;1.20;;
11139;SDS011;5624;49.388;11.350;2023-02-26T11:45:17;1.57;;;1.47;;
11139;SDS011;5624;49.388;11.350;2023-02-26T11:47:44;0.90;;;0.90;;
11139;SDS011;5624;49.388;11.350;2023-02-26T11:50:16;1.40;;;1.30;;
11139;SDS011;5624;49.388;11.350;2023-02-26T11:52:45;1.40;;;1.30;;
11139;SDS011;5624;49.388;11.350;2023-02-26T11:55:26;1.07;;;1.07;;
11139;SDS011;5624;49.388;11.350;2023-02-26T11:57:54;1.50;;;1.30;;
11139;SDS011;5624;49.388;11.350;2023-02-26T12:00:29;1.17;;;1.10;;
11139;SDS011;5624;49.388;11.350;2023-02-26T12:03:00;2.83;;;2.10;;
11139;SDS011;5624;49.388;11.350;2023-02-26T12:05:28;2.40;;;1.17;;
11139;SDS011;5624;49.388;11.350;2023-02-26T12:07:55;1.10;;;1.10;;
11139;SDS011;5624;49.388;11.350;2023-02-26T12:10:24;1.10;;;1.10;;
11139;SDS011;5624;49.388;11.350;2023-02-26T12:15:39;1.10;;;1.10;;
11139;SDS011;5624;49.388;11.350;2023-02-26T12:18:34;1.30;;;1.20;;
11139;SDS011;5624;49.388;11.350;2023-02-26T12:21:19;1.40;;;1.30;;
11139;SDS011;5624;49.388;11.350;2023-02-26T12:26:54;1.30;;;1.20;;
11139;SDS011;5624;49.388;11.350;2023-02-26T12:29:36;1.67;;;1.40;;
11139;SDS011;5624;49.388;11.350;2023-02-26T12:32:28;1.33;;;1.27;;
11139;SDS011;5624;49.388;11.350;2023-02-26T12:43:50;1.20;;;1.20;;
11139;SDS011;5624;49.388;11.350;2023-02-26T12:46:21;1.27;;;1.07;;
11139;SDS011;5624;49.388;11.350;2023-02-26T12:49:19;0.90;;;0.90;;
11139;SDS011;5624;49.388;11.350;2023-02-26T12:57:19;1.90;;;1.30;;
11139;SDS011;5624;49.388;11.350;2023-02-26T13:05:02;1.30;;;1.20;;
11139;SDS011;5624;49.388;11.350;2023-02-26T13:22:46;1.97;;;1.37;;
11139;SDS011;5624;49.388;11.350;2023-02-26T13:25:03;1.27;;;1.17;;
11139;SDS011;5624;49.388;11.350;2023-02-26T13:27:40;1.97;;;1.40;;
11139;SDS011;5624;49.388;11.350;2023-02-26T13:32:43;1.80;;;1.40;;
11139;SDS011;5624;49.388;11.350;2023-02-26T13:35:46;1.33;;;1.20;;
11139;SDS011;5624;49.388;11.350;2023-02-26T13:51:46;2.27;;;1.40;;
11139;SDS011;5624;49.388;11.350;2023-02-26T14:06:47;0.97;;;0.97;;
11139;SDS011;5624;49.388;11.350;2023-02-26T14:19:30;1.90;;;1.80;;
11139;SDS011;5624;49.388;11.350;2023-02-26T14:24:58;2.30;;;1.47;;
11139;SDS011;5624;49.388;11.350;2023-02-26T14:27:37;2.40;;;1.60;;
11139;SDS011;5624;49.388;11.350;2023-02-26T14:32:37;1.47;;;1.37;;
11139;SDS011;5624;49.388;11.350;2023-02-26T14:35:10;1.00;;;1.00;;
11139;SDS011;5624;49.388;11.350;2023-02-26T14:37:39;1.57;;;1.20;;
11139;SDS011;5624;49.388;11.350;2023-02-26T14:40:10;1.97;;;1.03;;
11139;SDS011;5624;49.388;11.350;2023-02-26T14:42:49;1.20;;;1.10;;
11139;SDS011;5624;49.388;11.350;2023-02-26T14:45:27;1.40;;;1.30;;
11139;SDS011;5624;49.388;11.350;2023-02-26T14:47:56;1.40;;;1.30;;
11139;SDS011;5624;49.388;11.350;2023-02-26T14:50:25;1.40;;;1.30;;
11139;SDS011;5624;49.388;11.350;2023-02-26T15:06:38;1.27;;;1.13;;
11139;SDS011;5624;49.388;11.350;2023-02-26T15:09:17;1.50;;;1.40;;
11139;SDS011;5624;49.388;11.350;2023-02-26T15:14:39;1.50;;;1.43;;
11139;SDS011;5624;49.388;11.350;2023-02-26T15:17:21;3.23;;;1.33;;
11139;SDS011;5624;49.388;11.350;2023-02-26T15:25:43;1.90;;;1.50;;
11139;SDS011;5624;49.388;11.350;2023-02-26T15:28:17;3.50;;;1.60;;
11139;SDS011;5624;49.388;11.350;2023-02-26T15:30:47;2.50;;;1.83;;
11139;SDS011;5624;49.388;11.350;2023-02-26T15:33:14;1.90;;;1.37;;
11139;SDS011;5624;49.388;11.350;2023-02-26T15:35:43;1.30;;;1.20;;
11139;SDS011;5624;49.388;11.350;2023-02-26T15:38:09;1.30;;;1.20;;
11139;SDS011;5624;49.388;11.350;2023-02-26T15:40:35;1.60;;;1.50;;
11139;SDS011;5624;49.388;11.350;2023-02-26T15:43:02;3.10;;;2.70;;
11139;SDS011;5624;49.388;11.350;2023-02-26T15:45:31;1.87;;;1.70;;
11139;SDS011;5624;49.388;11.350;2023-02-26T15:48:02;1.50;;;1.40;;
11139;SDS011;5624;49.388;11.350;2023-02-26T15:50:32;1.30;;;1.30;;
11139;SDS011;5624;49.388;11.350;2023-02-26T15:53:01;1.77;;;1.50;;
11139;SDS011;5624;49.388;11.350;2023-02-26T15:55:32;2.80;;;2.30;;
11139;SDS011;5624;49.388;11.350;2023-02-26T15:58:01;1.70;;;1.60;;
11139;SDS011;5624;49.388;11.350;2023-02-26T16:00:30;1.17;;;1.17;;
11139;SDS011;5624;49.388;11.350;2023-02-26T16:02:59;1.20;;;1.20;;
11139;SDS011;5624;49.388;11.350;2023-02-26T16:05:25;1.50;;;1.40;;
11139;SDS011;5624;49.388;11.350;2023-02-26T16:07:51;2.17;;;1.63;;
11139;SDS011;5624;49.388;11.350;2023-02-26T16:10:33;1.50;;;1.40;;
11139;SDS011;5624;49.388;11.350;2023-02-26T16:13:03;2.07;;;1.87;;
11139;SDS011;5624;49.388;11.350;2023-02-26T16:15:31;1.90;;;1.80;;
11139;SDS011;5624;49.388;11.350;2023-02-26T16:18:00;1.60;;;1.50;;
11139;SDS011;5624;49.388;11.350;2023-02-26T16:20:33;1.40;;;1.40;;
11139;SDS011;5624;49.388;11.350;2023-02-26T16:23:12;1.40;;;1.30;;
11139;SDS011;5624;49.388;11.350;2023-02-26T16:25:45;1.80;;;1.63;;
11139;SDS011;5624;49.388;11.350;2023-02-26T16:28:20;1.50;;;1.50;;
11139;SDS011;5624;49.388;11.350;2023-02-26T16:30:51;1.67;;;1.57;;
11139;SDS011;5624;49.388;11.350;2023-02-26T16:33:20;1.83;;;1.53;;
11139;SDS011;5624;49.388;11.350;2023-02-26T16:35:48;1.63;;;1.53;;
11139;SDS011;5624;49.388;11.350;2023-02-26T16:38:27;3.77;;;1.83;;
11139;SDS011;5624;49.388;11.350;2023-02-26T16:41:01;1.77;;;1.67;;
11139;SDS011;5624;49.388;11.350;2023-02-26T16:43:46;2.50;;;1.70;;
11139;SDS011;5624;49.388;11.350;2023-02-26T16:46:40;1.40;;;1.30;;
11139;SDS011;5624;49.388;11.350;2023-02-26T16:49:22;4.87;;;1.67;;
11139;SDS011;5624;49.388;11.350;2023-02-26T16:51:50;2.37;;;1.53;;
11139;SDS011;5624;49.388;11.350;2023-02-26T16:54:18;2.37;;;1.77;;
11139;SDS011;5624;49.388;11.350;2023-02-26T16:56:48;6.43;;;1.80;;
11139;SDS011;5624;49.388;11.350;2023-02-26T16:59:23;2.13;;;1.77;;
11139;SDS011;5624;49.388;11.350;2023-02-26T17:04:22;1.60;;;1.50;;
11139;SDS011;5624;49.388;11.350;2023-02-26T17:06:58;3.90;;;2.10;;
11139;SDS011;5624;49.388;11.350;2023-02-26T17:12:02;3.87;;;1.50;;
11139;SDS011;5624;49.388;11.350;2023-02-26T17:14:44;1.80;;;1.40;;
11139;SDS011;5624;49.388;11.350;2023-02-26T17:17:21;2.90;;;1.50;;
11139;SDS011;5624;49.388;11.350;2023-02-26T17:19:47;3.73;;;2.17;;
11139;SDS011;5624;49.388;11.350;2023-02-26T17:22:15;1.77;;;1.67;;
11139;SDS011;5624;49.388;11.350;2023-02-26T17:24:43;3.13;;;1.90;;
11139;SDS011;5624;49.388;11.350;2023-02-26T17:27:16;1.93;;;1.50;;
11139;SDS011;5624;49.388;11.350;2023-02-26T17:29:48;4.70;;;2.00;;
11139;SDS011;5624;49.388;11.350;2023-02-26T17:32:21;3.50;;;1.73;;
11139;SDS011;5624;49.388;11.350;2023-02-26T17:34:50;7.07;;;5.30;;
11139;SDS011;5624;49.388;11.350;2023-02-26T17:37:16;3.87;;;2.97;;
11139;SDS011;5624;49.388;11.350;2023-02-26T17:39:43;4.13;;;2.50;;
11139;SDS011;5624;49.388;11.350;2023-02-26T17:42:13;2.17;;;1.70;;
11139;SDS011;5624;49.388;11.350;2023-02-26T17:44:41;2.53;;;1.70;;
11139;SDS011;5624;49.388;11.350;2023-02-26T17:47:12;2.07;;;1.80;;
11139;SDS011;5624;49.388;11.350;2023-02-26T17:49:40;1.80;;;1.70;;
11139;SDS011;5624;49.388;11.350;2023-02-26T17:52:06;3.97;;;1.97;;
11139;SDS011;5624;49.388;11.350;2023-02-26T17:54:32;3.10;;;1.90;;
11139;SDS011;5624;49.388;11.350;2023-02-26T17:56:58;1.60;;;1.50;;
11139;SDS011;5624;49.388;11.350;2023-02-26T17:59:23;4.03;;;1.83;;
11139;SDS011;5624;49.388;11.350;2023-02-26T18:01:49;1.77;;;1.67;;
11139;SDS011;5624;49.388;11.350;2023-02-26T18:04:15;2.17;;;1.93;;
11139;SDS011;5624;49.388;11.350;2023-02-26T18:06:40;2.17;;;1.97;;
11139;SDS011;5624;49.388;11.350;2023-02-26T18:09:07;2.70;;;2.40;;
11139;SDS011;5624;49.388;11.350;2023-02-26T18:11:34;2.40;;;2.13;;
11139;SDS011;5624;49.388;11.350;2023-02-26T18:14:00;2.33;;;2.00;;
11139;SDS011;5624;49.388;11.350;2023-02-26T18:16:27;1.80;;;1.57;;
11139;SDS011;5624;49.388;11.350;2023-02-26T18:18:57;1.97;;;1.80;;